This is the latest recevied weather packets stored in our database for station/object VE2CSM-13. If no packets are shown the sender has not sent any weather packets the latest 10 day(s).
| Time | Temp. | Humidity | Pressure | Rain* | Wind** | Luminosity | Snow |
|---|---|---|---|---|---|---|---|
| 1777917968 | 8.89° C | 73% | 1015.3 hPa | 0 mm | - | - | - |
| 1777916167 | 9.44° C | 72% | 1015.5 hPa | 0 mm | - | - | - |
| 1777910767 | 5° C | 87% | 1015.7 hPa | 0.25 mm | - | - | - |
| 1777903567 | 2.78° C | 89% | 1015.4 hPa | 2.79 mm | - | - | - |
| 1777898167 | 2.78° C | 75% | 1015.6 hPa | 0 mm | - | - | - |
| 1777896367 | 2.22° C | 78% | 1015.5 hPa | 0 mm | - | - | - |
| 1777894569 | 1.67° C | 79% | 1015.2 hPa | 0 mm | - | - | - |
| 1777892767 | 1.11° C | 78% | 1015.6 hPa | 0 mm | - | - | - |
| 1777890967 | 0° C | 79% | 1015.6 hPa | 0 mm | - | - | - |
| 1777889166 | -1.11° C | 85% | 1015.4 hPa | 0 mm | - | - | - |
| 1777887366 | -2.22° C | 87% | 1015.6 hPa | 0 mm | - | - | - |
| 1777885566 | -2.22° C | 86% | 1015.5 hPa | 0 mm | - | - | - |
| 1777883766 | -2.22° C | 86% | 1015.9 hPa | 0 mm | - | - | - |
| 1777881966 | -1.67° C | 84% | 1016 hPa | 0 mm | - | - | - |
| 1777880047 | -1.67° C | 84% | 1016.1 hPa | 0 mm | - | - | - |
| 1777879087 | -1.67° C | 83% | 1016 hPa | 0 mm | - | - | - |
| 1777878127 | -1.11° C | 82% | 1016.1 hPa | 0 mm | - | - | - |
| 1777877646 | -1.11° C | 82% | 1016 hPa | 0 mm | - | - | - |
| 1777877166 | -1.67° C | 83% | 1016.1 hPa | 0 mm | - | - | - |
| 1777876686 | -1.11° C | 82% | 1016.2 hPa | 0 mm | - | - | - |
| 1777876206 | -1.11° C | 83% | 1016.2 hPa | 0 mm | - | - | - |
| 1777875966 | -1.11° C | 83% | 1016.2 hPa | 0 mm | - | - | - |
| 1777875726 | -1.67° C | 85% | 1016.2 hPa | 0 mm | - | - | - |
| 1777875486 | -1.67° C | 85% | 1016.3 hPa | 0 mm | - | - | - |
| 1777875246 | -1.67° C | 85% | 1016.3 hPa | 0 mm | - | - | - |
* Rain latest hour (hover to see other rain measurements)
** Current wind speed in m/s (hover to see current wind gust speed)